Terminal Aerodrome Forecast
Issued by NWS

Home | Current Version | Previous Version | Text Only | Print | Product List | Glossary Off
Versions: 1 2 3 4 5 6 7 8 9 10 11 12 13 14 15 16 17 18 19 20 21 22 23

840
FTUS43 KPAH 052107 AAA
TAFCGI
TAF AMD
KCGI 052107Z 0521/0618 10007KT P6SM BKN015
      TEMPO 0521/0601 SCT020
     FM060100 06004KT 5SM -RA BR OVC015
     FM060600 01005KT 2SM -RA BR OVC005
     FM061400 32010KT 4SM BR OVC015
     FM061600 33012G18KT P6SM OVC025=

USA.gov is the U.S. government's official web portal to all federal, state and local government web resources and services.